Brightwaters, New York
Current Conditions -  °F | °C
As of 10:53 AM on Saturday 20 Dec 2014 (Local Time) from KFRG Reporting Station
Overcast Overcast  
Wind Chill: -3°   Ceiling: 2500
Heat Index:   Visibility: 10mi
Dew Point: -6°   Wind: 6mph
Humidity: 64%   Direction: 330°NNW
Pressure: 30.29"   Gusts: NA
Location:  40.72°N, 73.27°W
Report Text: KFRG 201553Z 33005KT 10SM OVC025 00/M06 A3029 RMK AO2 SLP257 T00001061
Loading
Personal Weather Stations






























Interactive Weather Map New forecast layout! Learn more

10-Day Weather Forecast

Advertisements
Track Severe Weather on mobile